Etusivu
METAR-TAF:

METAR-TAF

Lentoasemat :

Paso de los Libres, Argentiina

Leveyspiiri: 29-41S, Pituuspiiri: 057-09W, korkeus merenpinnasta: 69 m

Tämänhetkinen sää

Tämä raportti tehtiin 1 tunti ja 10 minuuttia sitten, kello 05.00 UTC
Tuuli 6 kn idästä/kaakosta
Lämpötila 21°C
Kosteus 94%
Ilmanpaine 1013 hPa
Näkyvyys 10 km tai enemmän
ei pilviä alle 1500 m:ssä eikä cumulonimbus-pilviä

METAR: SARL 190500Z 11006KT CAVOK 21/20 Q1013

Aika: 03:10 (06:10 UTC)


TAF: puuttuu

Säähavainnot ja -ennusteet yli 4000 lentoasemalta (METAR- ja TAF-raportit).

Käytössä olevat sääasemat on merkitty karttaan keltaisilla ja punaisilla pisteillä.

Aseta hiiri pisteen päälle nähdäksesi sääaseman nimen.

Klikkaa sitten nähdäksesi säähavainnot ja -ennusteet.

Kartan vaihtaminen: klikkaa mustalla rastilla varustettuja vihreitä pisteitä, niin voit zoomata sisään; viivalla varustettua vihreää pistettä, niin voit zoomata ulos tai vihreitä nuolia, niin pääset viereisille kartoille.


METAR-TAF: